createdAt,value
2023-02-03T00:01:25.957Z,6.31
2023-02-03T00:03:52.374Z,6.24
2023-02-03T00:06:18.919Z,6.23
2023-02-03T00:08:45.479Z,6.19
2023-02-03T00:11:12.265Z,6.13
2023-02-03T00:13:38.717Z,6.04
2023-02-03T00:16:06.669Z,5.95
2023-02-03T00:18:33.784Z,5.90
2023-02-03T00:21:00.200Z,5.87
2023-02-03T00:23:30.028Z,5.83
2023-02-03T00:25:56.448Z,5.75
2023-02-03T00:28:22.887Z,5.71
2023-02-03T00:30:49.670Z,5.62
2023-02-03T00:33:16.087Z,5.53
2023-02-03T00:35:42.495Z,5.44
2023-02-03T00:38:08.919Z,5.40
2023-02-03T00:40:35.387Z,5.48
2023-02-03T00:43:01.864Z,5.51
2023-02-03T00:45:28.266Z,5.53
2023-02-03T00:47:54.652Z,5.61
2023-02-03T00:50:21.063Z,5.64
2023-02-03T00:52:47.539Z,5.69
2023-02-03T00:55:13.932Z,5.69
2023-02-03T00:57:40.371Z,5.71
2023-02-03T01:00:07.803Z,5.63
2023-02-03T01:02:34.338Z,5.52
2023-02-03T01:05:00.790Z,5.51
2023-02-03T01:07:27.279Z,5.44
2023-02-03T01:09:53.785Z,5.35
2023-02-03T01:12:20.178Z,5.27
2023-02-03T01:14:46.611Z,5.15
2023-02-03T01:17:13.077Z,5.00
2023-02-03T01:19:39.490Z,4.81
2023-02-03T01:22:06.067Z,4.84
2023-02-03T01:24:32.448Z,4.71
2023-02-03T01:26:58.846Z,4.75
2023-02-03T01:29:25.315Z,4.71
2023-02-03T01:31:51.832Z,4.73
2023-02-03T01:34:18.501Z,4.62
2023-02-03T01:36:46.820Z,4.53
2023-02-03T01:39:14.194Z,4.40
2023-02-03T01:41:41.057Z,4.26
2023-02-03T01:44:38.874Z,4.14
2023-02-03T01:47:11.973Z,4.11
2023-02-03T01:49:42.237Z,4.10
2023-02-03T01:52:08.731Z,4.12
2023-02-03T01:54:41.143Z,4.21
2023-02-03T01:57:19.439Z,4.44
2023-02-03T01:59:47.901Z,4.52
2023-02-03T02:02:14.421Z,4.66
2023-02-03T02:04:57.393Z,4.90
2023-02-03T02:07:24.581Z,5.08
2023-02-03T02:09:51.069Z,5.16
2023-02-03T02:12:17.495Z,5.14
2023-02-03T02:14:45.666Z,4.98
2023-02-03T02:17:21.966Z,5.03
2023-02-03T02:20:09.029Z,5.09
2023-02-03T02:22:55.285Z,5.02
2023-02-03T02:25:38.482Z,4.86
2023-02-03T02:28:16.976Z,4.69
2023-02-03T02:31:11.765Z,4.68
2023-02-03T02:33:49.607Z,4.56
2023-02-03T02:36:15.945Z,4.52
2023-02-03T02:38:59.512Z,4.57
2023-02-03T02:41:35.123Z,4.65
2023-02-03T02:44:08.808Z,4.70
2023-02-03T02:46:43.609Z,4.67
2023-02-03T02:49:35.325Z,4.36
2023-02-03T02:52:05.396Z,4.33
2023-02-03T02:54:37.535Z,4.21
2023-02-03T02:57:05.839Z,4.10
2023-02-03T02:59:32.361Z,4.06
2023-02-03T03:01:58.801Z,4.11
2023-02-03T03:04:28.280Z,4.12
2023-02-03T03:07:12.197Z,4.21
2023-02-03T03:09:50.606Z,4.18
2023-02-03T03:12:22.606Z,4.16
2023-02-03T03:14:57.950Z,4.17
2023-02-03T03:17:28.573Z,4.12
2023-02-03T03:19:57.800Z,4.18
2023-02-03T03:22:30.241Z,4.06
2023-02-03T03:25:26.057Z,3.88
2023-02-03T03:27:58.999Z,3.71
2023-02-03T03:30:37.654Z,3.71
2023-02-03T03:33:05.636Z,3.85
2023-02-03T03:35:42.361Z,3.83
2023-02-03T03:38:21.784Z,3.80
2023-02-03T03:41:09.876Z,3.81
2023-02-03T03:43:40.092Z,3.88
2023-02-03T03:46:28.170Z,3.97
2023-02-03T03:48:58.561Z,3.88
2023-02-03T03:51:36.919Z,3.89
2023-02-03T03:54:09.801Z,4.03
2023-02-03T03:56:43.731Z,4.08
2023-02-03T03:59:14.256Z,4.14
2023-02-03T04:01:41.663Z,4.15
2023-02-03T04:04:10.816Z,4.18
2023-02-03T04:06:40.299Z,4.27
2023-02-03T04:09:06.922Z,4.26
2023-02-03T04:11:51.825Z,4.28
2023-02-03T04:14:18.280Z,4.37
2023-02-03T04:16:44.670Z,4.45
2023-02-03T04:19:11.090Z,4.46
2023-02-03T04:21:37.489Z,4.43
2023-02-03T04:24:04.039Z,4.37
2023-02-03T04:26:30.438Z,4.29
2023-02-03T04:28:56.847Z,4.24
2023-02-03T04:31:23.354Z,4.24
2023-02-03T04:33:49.816Z,4.22
2023-02-03T04:36:16.343Z,4.15
2023-02-03T04:38:42.718Z,4.13
2023-02-03T04:41:09.195Z,4.05
2023-02-03T04:43:35.589Z,3.94
2023-02-03T04:46:02.084Z,3.68
2023-02-03T04:48:28.581Z,3.69
2023-02-03T04:51:00.510Z,3.70
2023-02-03T04:53:26.925Z,3.60
2023-02-03T04:55:53.333Z,3.60
2023-02-03T04:58:19.760Z,3.54
2023-02-03T05:00:46.208Z,3.60
2023-02-03T05:03:12.745Z,3.61
2023-02-03T05:05:39.163Z,3.33
2023-02-03T05:08:05.829Z,3.27
2023-02-03T05:10:32.508Z,3.23
2023-02-03T05:12:59.042Z,3.20
2023-02-03T05:15:25.501Z,3.03
2023-02-03T05:17:52.950Z,2.93
2023-02-03T05:20:19.416Z,3.07
2023-02-03T05:22:45.888Z,3.31
2023-02-03T05:25:12.567Z,3.34
2023-02-03T05:27:39.780Z,3.00
2023-02-03T05:30:08.452Z,2.88
2023-02-03T05:32:34.930Z,2.88
2023-02-03T05:35:01.379Z,2.99
2023-02-03T05:37:27.839Z,2.99
2023-02-03T05:40:14.209Z,2.96
2023-02-03T05:42:46.670Z,2.96
2023-02-03T05:45:13.066Z,2.78
2023-02-03T05:47:39.498Z,2.73
2023-02-03T05:50:06.045Z,2.69
2023-02-03T05:52:32.492Z,2.72
2023-02-03T05:54:58.927Z,2.70
2023-02-03T05:57:25.383Z,2.50
2023-02-03T05:59:51.839Z,2.31
2023-02-03T06:02:18.283Z,2.40
2023-02-03T06:04:44.742Z,2.22
2023-02-03T06:07:11.166Z,2.15
2023-02-03T06:09:37.576Z,2.08
2023-02-03T06:12:04.229Z,2.15
2023-02-03T06:14:30.688Z,2.27
2023-02-03T06:16:57.217Z,2.23
2023-02-03T06:19:23.820Z,2.30
2023-02-03T06:21:50.356Z,2.36
2023-02-03T06:24:16.767Z,2.30
2023-02-03T06:26:43.197Z,2.26
2023-02-03T06:29:11.329Z,2.30
2023-02-03T06:31:40.452Z,2.41
2023-02-03T06:34:14.905Z,2.51
2023-02-03T06:37:24.767Z,2.33
2023-02-03T06:40:00.860Z,2.19
2023-02-03T06:42:31.460Z,2.18
2023-02-03T06:45:05.915Z,2.27
2023-02-03T06:47:46.813Z,2.23
2023-02-03T06:50:16.120Z,2.23
2023-02-03T06:52:49.113Z,2.22
2023-02-03T06:55:19.238Z,2.21
2023-02-03T06:57:49.919Z,2.25
2023-02-03T07:00:21.700Z,2.22
2023-02-03T07:03:07.164Z,2.22
2023-02-03T07:05:37.005Z,2.12
2023-02-03T07:08:03.762Z,1.95
2023-02-03T07:10:30.615Z,1.90
2023-02-03T07:13:05.579Z,1.77
2023-02-03T07:15:32.537Z,1.84
2023-02-03T07:17:59.376Z,1.91
2023-02-03T07:20:26.535Z,2.00
2023-02-03T07:22:55.382Z,2.05
2023-02-03T07:25:23.080Z,2.05
2023-02-03T07:27:49.601Z,2.16
2023-02-03T07:30:23.109Z,2.32
2023-02-03T07:32:51.489Z,2.39
2023-02-03T07:35:19.083Z,2.45
2023-02-03T07:37:49.107Z,2.55
2023-02-03T07:40:24.430Z,2.65
2023-02-03T07:42:51.461Z,2.74
2023-02-03T07:45:19.695Z,2.58
2023-02-03T07:47:49.437Z,2.71
2023-02-03T07:50:15.932Z,2.92
2023-02-03T07:52:42.868Z,3.00
2023-02-03T07:55:09.745Z,3.07
2023-02-03T07:57:37.690Z,3.01
2023-02-03T08:00:08.791Z,3.13
2023-02-03T08:02:55.710Z,3.23
2023-02-03T08:05:27.975Z,3.45
2023-02-03T08:08:12.657Z,3.53
2023-02-03T08:10:39.761Z,3.58
2023-02-03T08:13:10.878Z,3.76
2023-02-03T08:15:40.863Z,3.89
2023-02-03T08:18:09.744Z,3.83
2023-02-03T08:20:36.228Z,3.88
2023-02-03T08:23:02.636Z,4.07
2023-02-03T08:25:29.066Z,4.24
2023-02-03T08:27:55.547Z,4.38
2023-02-03T08:30:22.410Z,4.51
2023-02-03T08:32:49.257Z,4.53
2023-02-03T08:35:15.764Z,4.66
2023-02-03T08:37:42.192Z,4.64
2023-02-03T08:40:10.355Z,4.68
2023-02-03T08:42:36.996Z,4.75
2023-02-03T08:45:05.268Z,4.80
2023-02-03T08:47:31.837Z,4.79
2023-02-03T08:49:58.383Z,4.79
2023-02-03T08:52:24.862Z,4.79
2023-02-03T08:54:51.314Z,4.79
2023-02-03T08:57:17.776Z,4.84
2023-02-03T08:59:44.358Z,4.91
2023-02-03T09:02:15.678Z,4.93
2023-02-03T09:04:42.353Z,4.94
2023-02-03T09:07:08.888Z,5.00
2023-02-03T09:09:35.388Z,5.08
2023-02-03T09:12:05.387Z,5.10
2023-02-03T09:14:33.547Z,5.13
2023-02-03T09:17:03.176Z,5.22
2023-02-03T09:19:30.374Z,5.34
2023-02-03T09:21:59.850Z,5.63
2023-02-03T09:24:26.789Z,5.59
2023-02-03T09:26:53.221Z,5.49
2023-02-03T09:29:20.167Z,5.58
2023-02-03T09:31:48.654Z,5.60
2023-02-03T09:34:15.155Z,5.59
2023-02-03T09:36:43.062Z,5.65
2023-02-03T09:39:09.651Z,5.70
2023-02-03T09:42:21.150Z,5.82
2023-02-03T09:45:02.975Z,6.04
2023-02-03T09:47:37.208Z,6.11
2023-02-03T09:50:07.125Z,6.11
2023-02-03T09:52:39.305Z,6.16
2023-02-03T09:55:26.727Z,6.23
2023-02-03T09:58:15.223Z,6.30
2023-02-03T10:01:07.576Z,6.30
2023-02-03T10:03:45.550Z,6.43
2023-02-03T10:06:36.119Z,6.66
2023-02-03T10:09:31.086Z,6.82
2023-02-03T10:12:28.697Z,6.85
2023-02-03T10:15:06.994Z,6.88
2023-02-03T10:17:41.198Z,6.86
2023-02-03T10:20:29.950Z,6.96
2023-02-03T10:23:04.645Z,7.03
2023-02-03T10:25:59.430Z,7.07
2023-02-03T10:28:57.291Z,7.17
2023-02-03T10:31:35.026Z,7.19
2023-02-03T10:34:23.061Z,7.31
2023-02-03T10:37:06.347Z,7.37
2023-02-03T10:39:41.629Z,7.52
2023-02-03T10:42:11.716Z,7.57
2023-02-03T10:45:03.472Z,7.54
2023-02-03T10:47:53.602Z,7.59
2023-02-03T10:50:27.216Z,7.71
2023-02-03T10:53:33.681Z,7.82
2023-02-03T10:56:16.031Z,8.20
2023-02-03T10:58:53.279Z,8.18
2023-02-03T11:01:23.632Z,8.19
2023-02-03T11:04:04.032Z,8.13
2023-02-03T11:06:32.379Z,8.06
2023-02-03T11:08:59.669Z,8.04
2023-02-03T11:11:33.846Z,8.09
2023-02-03T11:14:03.091Z,8.14
2023-02-03T11:16:31.973Z,8.23
2023-02-03T11:19:02.597Z,8.26
2023-02-03T11:21:39.397Z,8.36
2023-02-03T11:24:26.704Z,8.44
2023-02-03T11:27:25.287Z,8.55
2023-02-03T11:30:14.810Z,8.41
2023-02-03T11:33:04.545Z,8.55
2023-02-03T11:35:42.507Z,8.58
2023-02-03T11:38:29.782Z,8.74
2023-02-03T11:41:00.003Z,8.90
2023-02-03T11:43:29.081Z,8.82
2023-02-03T11:46:02.121Z,8.86
2023-02-03T11:48:36.086Z,8.91
2023-02-03T11:51:30.257Z,9.00
2023-02-03T11:54:36.204Z,9.08
2023-02-03T11:57:34.680Z,9.07
2023-02-03T12:00:19.572Z,9.03
2023-02-03T12:02:59.509Z,9.03
2023-02-03T12:05:41.606Z,9.23
2023-02-03T12:08:25.110Z,9.15
2023-02-03T12:11:00.572Z,9.20
2023-02-03T12:13:49.633Z,9.33
2023-02-03T12:16:35.094Z,9.38
2023-02-03T12:19:44.496Z,9.48
2023-02-03T12:22:44.815Z,9.63
2023-02-03T12:25:40.264Z,9.69
2023-02-03T12:28:51.835Z,9.62
2023-02-03T12:31:42.840Z,9.47
2023-02-03T12:34:24.857Z,9.40
2023-02-03T12:36:58.234Z,9.40
2023-02-03T12:39:41.407Z,9.46
2023-02-03T12:42:32.252Z,9.50
2023-02-03T12:45:05.038Z,9.60
2023-02-03T12:47:56.917Z,9.71
2023-02-03T12:50:31.048Z,9.70
2023-02-03T12:53:15.764Z,9.73
2023-02-03T12:55:47.881Z,9.84
2023-02-03T12:58:25.314Z,9.87
2023-02-03T13:01:03.861Z,9.88
2023-02-03T13:03:56.843Z,9.76
2023-02-03T13:06:46.843Z,9.85
2023-02-03T13:09:21.729Z,10.08
2023-02-03T13:12:07.081Z,10.17
2023-02-03T13:14:42.785Z,10.18
2023-02-03T13:17:28.050Z,10.16
2023-02-03T13:20:08.385Z,10.21
2023-02-03T13:22:34.851Z,10.30
2023-02-03T13:25:36.150Z,10.24
2023-02-03T13:28:27.295Z,10.24
2023-02-03T13:30:53.725Z,10.30
2023-02-03T13:33:44.538Z,10.30
2023-02-03T13:36:32.081Z,10.31
2023-02-03T13:39:30.475Z,10.33
2023-02-03T13:42:23.173Z,10.43
2023-02-03T13:44:58.634Z,10.39
2023-02-03T13:47:32.135Z,10.43
2023-02-03T13:50:07.507Z,10.44
2023-02-03T13:53:03.122Z,10.45
2023-02-03T13:55:36.786Z,10.43
2023-02-03T13:58:08.355Z,10.44
2023-02-03T14:00:56.774Z,10.45
2023-02-03T14:03:26.822Z,10.51
2023-02-03T14:05:55.658Z,10.55
2023-02-03T14:08:25.022Z,10.52
2023-02-03T14:11:29.125Z,10.54
2023-02-03T14:14:15.443Z,10.61
2023-02-03T14:16:49.512Z,10.67
2023-02-03T14:19:21.818Z,10.70
2023-02-03T14:21:53.022Z,10.74
2023-02-03T14:24:20.641Z,10.76
2023-02-03T14:26:51.964Z,10.82
2023-02-03T14:29:24.655Z,10.86
2023-02-03T14:32:05.144Z,10.86
2023-02-03T14:34:41.779Z,10.99
2023-02-03T14:37:14.788Z,11.07
2023-02-03T14:40:22.028Z,11.09
2023-02-03T14:43:43.766Z,11.12
2023-02-03T14:46:40.809Z,11.16
2023-02-03T14:49:26.560Z,11.15
2023-02-03T14:52:24.610Z,11.10
2023-02-03T14:55:12.959Z,11.08
2023-02-03T14:57:49.655Z,11.15
2023-02-03T15:00:22.644Z,11.10
2023-02-03T15:03:15.437Z,11.08
2023-02-03T15:06:02.194Z,11.02
2023-02-03T15:08:48.437Z,11.02
2023-02-03T15:12:23.201Z,11.00
2023-02-03T15:14:50.791Z,10.99
2023-02-03T15:17:20.417Z,11.03
2023-02-03T15:19:50.020Z,11.02
2023-02-03T15:22:27.455Z,11.03
2023-02-03T15:24:57.437Z,10.98
2023-02-03T15:27:27.054Z,10.94
2023-02-03T15:30:16.024Z,10.90
2023-02-03T15:32:52.929Z,10.84
2023-02-03T15:35:20.646Z,10.82
2023-02-03T15:37:47.185Z,10.78
2023-02-03T15:40:23.544Z,10.75
2023-02-03T15:43:09.560Z,10.73
2023-02-03T15:45:45.838Z,10.70
2023-02-03T15:48:16.841Z,10.65
2023-02-03T15:50:56.893Z,10.61
2023-02-03T15:53:46.865Z,10.53
2023-02-03T15:56:48.641Z,10.45
2023-02-03T15:59:27.425Z,10.36
2023-02-03T16:01:54.299Z,10.32
2023-02-03T16:04:22.011Z,10.29
2023-02-03T16:06:50.955Z,10.25
2023-02-03T16:09:45.259Z,10.23
2023-02-03T16:12:18.676Z,10.17
2023-02-03T16:14:46.633Z,10.15
2023-02-03T16:17:25.350Z,10.10
2023-02-03T16:20:11.651Z,10.03
2023-02-03T16:22:38.018Z,9.94
2023-02-03T16:25:27.581Z,9.89
2023-02-03T16:28:34.385Z,9.74
2023-02-03T16:31:33.520Z,9.68
2023-02-03T16:34:20.558Z,9.72
2023-02-03T16:37:05.742Z,9.71
2023-02-03T16:39:50.627Z,9.61
2023-02-03T16:42:38.896Z,9.43
2023-02-03T16:45:34.717Z,9.35
2023-02-03T16:48:21.090Z,9.32
2023-02-03T16:50:59.339Z,9.28
2023-02-03T16:53:31.926Z,9.32
2023-02-03T16:56:01.081Z,9.19
2023-02-03T16:58:27.956Z,9.05
2023-02-03T17:00:55.241Z,8.80
2023-02-03T17:03:24.740Z,8.70
2023-02-03T17:05:52.335Z,8.61
2023-02-03T17:08:21.422Z,8.51
2023-02-03T17:10:48.065Z,8.44
2023-02-03T17:13:15.765Z,8.41
2023-02-03T17:15:44.559Z,8.18
2023-02-03T17:18:11.983Z,8.08
2023-02-03T17:20:38.485Z,8.02
2023-02-03T17:23:04.933Z,7.91
2023-02-03T17:25:33.956Z,7.82
2023-02-03T17:28:00.433Z,7.81
2023-02-03T17:30:28.340Z,7.78
2023-02-03T17:32:56.664Z,7.78
2023-02-03T17:35:23.964Z,7.84
2023-02-03T17:37:50.419Z,7.83
2023-02-03T17:54:06.247Z,7.48
2023-02-03T17:56:35.376Z,7.35
2023-02-03T17:59:04.156Z,7.33
2023-02-03T18:01:31.781Z,7.20
2023-02-03T18:04:01.240Z,7.15
2023-02-03T18:06:29.838Z,7.05
2023-02-03T18:09:01.937Z,7.03
2023-02-03T18:11:30.467Z,7.11
2023-02-03T18:13:57.085Z,7.22
2023-02-03T18:16:26.430Z,7.44
2023-02-03T18:18:53.761Z,7.70
2023-02-03T18:21:22.576Z,8.08
2023-02-03T18:23:51.063Z,8.56
2023-02-03T18:26:19.649Z,8.87
2023-02-03T18:28:47.113Z,8.99
2023-02-03T18:31:17.503Z,9.06
2023-02-03T18:33:46.120Z,9.09
2023-02-03T18:36:14.133Z,9.12
2023-02-03T18:38:42.513Z,9.15
2023-02-03T18:41:15.508Z,9.10
2023-02-03T18:43:42.898Z,9.08
2023-02-03T18:46:11.544Z,9.06
2023-02-03T18:48:38.011Z,9.04
2023-02-03T18:51:08.945Z,9.07
2023-02-03T18:53:36.271Z,9.02
2023-02-03T18:56:09.302Z,8.99
2023-02-03T18:58:38.648Z,8.97
2023-02-03T19:01:05.297Z,8.95
2023-02-03T19:03:31.839Z,8.94
2023-02-03T19:05:58.509Z,8.95
2023-02-03T19:08:25.183Z,8.90
2023-02-03T19:10:55.289Z,8.90
2023-02-03T19:13:21.831Z,8.77
2023-02-03T19:15:48.953Z,8.48
2023-02-03T19:18:16.081Z,7.96
2023-02-03T19:20:43.599Z,7.57
2023-02-03T19:23:12.313Z,7.44
2023-02-03T19:25:39.269Z,7.25
2023-02-03T19:28:06.858Z,7.10
2023-02-03T19:30:36.266Z,7.05
2023-02-03T19:33:02.926Z,7.03
2023-02-03T19:35:29.443Z,7.02
2023-02-03T19:37:55.843Z,6.76
2023-02-03T19:40:22.313Z,6.48
2023-02-03T19:42:49.986Z,6.54
2023-02-03T19:45:16.540Z,6.59
2023-02-03T19:47:43.109Z,6.48
2023-02-03T19:50:09.979Z,6.43
2023-02-03T19:52:36.467Z,6.23
2023-02-03T19:55:03.513Z,6.13
2023-02-03T19:57:29.895Z,6.16
2023-02-03T19:59:56.706Z,6.07
2023-02-03T20:02:23.251Z,6.14
2023-02-03T20:04:50.303Z,6.21
2023-02-03T20:07:16.880Z,6.18
2023-02-03T20:09:43.342Z,6.16
2023-02-03T20:12:09.870Z,6.08
2023-02-03T20:14:36.273Z,6.11
2023-02-03T20:17:04.860Z,6.28
2023-02-03T20:19:31.322Z,6.33
2023-02-03T20:21:57.835Z,6.38
2023-02-03T20:24:24.926Z,6.32
2023-02-03T20:26:51.409Z,6.30
2023-02-03T20:29:17.865Z,6.22
2023-02-03T20:31:44.332Z,6.17
2023-02-03T20:34:11.188Z,6.18
2023-02-03T20:36:38.315Z,6.23
2023-02-03T20:39:05.005Z,6.24
2023-02-03T20:41:31.456Z,6.21
2023-02-03T20:43:57.935Z,6.10
2023-02-03T20:46:24.353Z,6.03
2023-02-03T20:48:50.762Z,5.99
2023-02-03T20:51:18.659Z,5.88
2023-02-03T20:53:45.075Z,5.75
2023-02-03T20:56:17.166Z,5.58
2023-02-03T20:58:44.792Z,5.47
2023-02-03T21:01:20.285Z,5.44
2023-02-03T21:04:05.567Z,5.55
2023-02-03T21:06:33.889Z,5.69
2023-02-03T21:09:20.793Z,5.75
2023-02-03T21:11:47.192Z,5.75
2023-02-03T21:14:44.002Z,5.85
2023-02-03T21:17:25.645Z,6.06
2023-02-03T21:19:52.860Z,6.15
2023-02-03T21:22:27.758Z,6.15
2023-02-03T21:24:59.852Z,5.92
2023-02-03T21:27:29.252Z,5.74
2023-02-03T21:29:57.722Z,5.59
2023-02-03T21:32:38.395Z,5.26
2023-02-03T21:35:26.068Z,4.84
2023-02-03T21:37:56.901Z,4.57
2023-02-03T21:40:26.704Z,4.47
2023-02-03T21:42:54.242Z,4.52
2023-02-03T21:45:28.471Z,4.75
2023-02-03T21:47:57.498Z,4.98
2023-02-03T21:50:28.303Z,5.11
2023-02-03T21:52:54.961Z,5.12
2023-02-03T21:55:21.367Z,5.14
2023-02-03T21:57:48.327Z,5.22
2023-02-03T22:00:42.939Z,5.23
2023-02-03T22:03:20.199Z,5.32
2023-02-03T22:05:47.583Z,5.43
2023-02-03T22:08:21.525Z,5.63
2023-02-03T22:10:48.521Z,5.68
2023-02-03T22:13:15.745Z,5.71
2023-02-03T22:15:43.278Z,5.73
2023-02-03T22:18:10.300Z,5.87
2023-02-03T22:20:36.738Z,5.90
2023-02-03T22:23:03.365Z,5.99
2023-02-03T22:25:29.808Z,5.98
2023-02-03T22:27:56.240Z,5.96
2023-02-03T22:30:22.748Z,6.02
2023-02-03T22:32:49.186Z,6.00
2023-02-03T22:35:15.698Z,5.96
2023-02-03T22:37:42.116Z,5.80
2023-02-03T22:40:10.079Z,5.66
2023-02-03T22:42:36.545Z,5.55
2023-02-03T22:45:03.101Z,5.50
2023-02-03T22:47:29.508Z,5.49
2023-02-03T22:49:56.033Z,5.52
2023-02-03T22:52:23.479Z,5.42
2023-02-03T22:54:49.885Z,5.34
2023-02-03T22:57:16.261Z,5.29
2023-02-03T22:59:42.663Z,5.26
2023-02-03T23:02:09.063Z,5.07
2023-02-03T23:04:35.610Z,5.00
2023-02-03T23:07:02.042Z,5.02
2023-02-03T23:09:28.722Z,5.03
2023-02-03T23:11:55.125Z,5.00
2023-02-03T23:14:21.600Z,5.00
2023-02-03T23:16:48.071Z,5.03
2023-02-03T23:19:15.499Z,5.07
2023-02-03T23:21:42.007Z,5.20
2023-02-03T23:24:08.513Z,5.28
2023-02-03T23:26:34.927Z,5.23
2023-02-03T23:29:01.758Z,5.19
2023-02-03T23:31:28.286Z,5.13
2023-02-03T23:34:13.346Z,5.14
2023-02-03T23:36:39.851Z,5.14
2023-02-03T23:39:06.604Z,5.08
2023-02-03T23:41:33.074Z,5.17
2023-02-03T23:44:00.846Z,5.23
2023-02-03T23:46:27.349Z,5.26
2023-02-03T23:48:53.760Z,5.38
2023-02-03T23:51:20.160Z,5.53
2023-02-03T23:53:46.578Z,5.54
2023-02-03T23:56:13.750Z,5.53
2023-02-03T23:58:40.207Z,5.60
